Poplar, Montana
Current Conditions -  °F | °C
As of 8:53 PM on Wednesday 26 Nov 2014 (Local Time) from KOLF Reporting Station
Clear Clear  
Wind Chill:   Ceiling: Unl
Heat Index: 14°   Visibility: 10mi
Dew Point:   Wind: 7mph
Humidity: 77%   Direction: 70°ENE
Pressure: 30.32"   Gusts: NA
Location:  48.11°N, 105.2°W
Report Text: KOLF 270353Z AUTO 07006KT 10SM CLR M10/M13 A3032 RMK AO2 SLP308 T11001133
Loading
Personal Weather Stations






























Interactive Weather Map New forecast layout! Learn more

10-Day Weather Forecast

Advertisements
Track Severe Weather on mobile